createdAt,value
2022-10-11T00:00:07.235Z,90.06
2022-10-11T00:01:07.276Z,90.26
2022-10-11T00:02:07.244Z,90.84
2022-10-11T00:03:07.225Z,91.36
2022-10-11T00:04:07.220Z,91.05
2022-10-11T00:05:07.217Z,90.47
2022-10-11T00:06:07.662Z,89.54
2022-10-11T00:07:07.208Z,89.65
2022-10-11T00:08:07.207Z,89.65
2022-10-11T00:09:07.204Z,89.95
2022-10-11T00:10:07.196Z,90.88
2022-10-11T00:11:07.208Z,90.37
2022-10-11T00:12:07.192Z,91.09
2022-10-11T00:13:07.197Z,91.13
2022-10-11T00:14:07.185Z,91.44
2022-10-11T00:15:07.184Z,91.54
2022-10-11T00:16:07.551Z,91.85
2022-10-11T00:17:07.173Z,92.47
2022-10-11T00:18:07.185Z,91.96
2022-10-11T00:19:07.176Z,92.78
2022-10-11T00:20:07.161Z,92.99
2022-10-11T00:21:07.154Z,92.99
2022-10-11T00:22:07.149Z,93.09
2022-10-11T00:23:07.149Z,92.47
2022-10-11T00:24:07.144Z,92.72
2022-10-11T00:25:07.141Z,92.47
2022-10-11T00:26:07.618Z,91.24
2022-10-11T00:27:07.131Z,91.58
2022-10-11T00:28:07.175Z,91.48
2022-10-11T00:29:07.124Z,92.00
2022-10-11T00:30:07.119Z,92.57
2022-10-11T00:31:07.597Z,92.82
2022-10-11T00:32:07.111Z,92.10
2022-10-11T00:33:07.109Z,92.82
2022-10-11T00:34:07.124Z,92.78
2022-10-11T00:35:07.106Z,93.19
2022-10-11T00:36:07.600Z,92.68
2022-10-11T00:37:07.093Z,92.88
2022-10-11T00:38:07.089Z,92.16
2022-10-11T00:39:07.086Z,91.44
2022-10-11T00:40:07.079Z,91.54
2022-10-11T00:41:07.073Z,91.71
2022-10-11T00:42:07.080Z,91.81
2022-10-11T00:43:07.065Z,91.81
2022-10-11T00:44:07.064Z,92.02
2022-10-11T00:45:07.063Z,92.12
2022-10-11T00:46:07.571Z,92.22
2022-10-11T00:47:07.053Z,92.63
2022-10-11T00:48:07.047Z,92.63
2022-10-11T00:49:07.046Z,92.08
2022-10-11T00:50:07.064Z,92.53
2022-10-11T00:51:07.758Z,91.25
2022-10-11T00:52:07.032Z,89.85
2022-10-11T00:53:07.029Z,89.03
2022-10-11T00:54:07.023Z,88.92
2022-10-11T00:55:07.021Z,89.85
2022-10-11T00:56:07.375Z,90.06
2022-10-11T00:57:07.012Z,89.65
2022-10-11T00:58:07.012Z,89.28
2022-10-11T00:59:07.011Z,89.28
2022-10-11T01:00:07.001Z,89.58
2022-10-11T01:01:07.096Z,90.14
2022-10-11T01:02:06.990Z,90.97
2022-10-11T01:03:06.985Z,90.97
2022-10-11T01:04:06.982Z,91.34
2022-10-11T01:05:28.168Z,92.21
2022-10-11T01:06:07.522Z,92.37
2022-10-11T01:07:06.970Z,92.31
2022-10-11T01:08:06.965Z,91.75
2022-10-11T01:09:06.965Z,91.48
2022-10-11T01:10:06.956Z,91.38
2022-10-11T01:11:06.966Z,90.66
2022-10-11T01:12:06.950Z,90.97
2022-10-11T01:13:06.950Z,90.66
2022-10-11T01:14:06.942Z,90.97
2022-10-11T01:15:06.940Z,91.89
2022-10-11T01:16:07.407Z,91.89
2022-10-11T01:17:06.934Z,91.32
2022-10-11T01:18:06.925Z,91.52
2022-10-11T01:19:06.927Z,92.76
2022-10-11T01:20:06.919Z,92.66
2022-10-11T01:21:06.913Z,92.41
2022-10-11T01:22:06.926Z,92.55
2022-10-11T01:23:06.903Z,92.04
2022-10-11T01:24:08.719Z,92.31
2022-10-11T01:25:06.902Z,92.10
2022-10-11T01:26:07.387Z,92.25
2022-10-11T01:27:06.887Z,92.61
2022-10-11T01:28:06.909Z,92.82
2022-10-11T01:29:06.880Z,92.10
2022-10-11T01:30:06.879Z,92.55
2022-10-11T01:31:06.870Z,92.21
2022-10-11T01:32:06.867Z,92.82
2022-10-11T01:33:06.869Z,93.13
2022-10-11T01:34:06.858Z,93.44
2022-10-11T01:35:06.854Z,93.71
2022-10-11T01:36:07.635Z,93.24
2022-10-11T01:37:06.846Z,92.61
2022-10-11T01:38:06.862Z,93.13
2022-10-11T01:39:06.835Z,92.82
2022-10-11T01:40:06.833Z,92.00
2022-10-11T01:41:06.832Z,91.38
2022-10-11T01:42:06.825Z,91.89
2022-10-11T01:43:06.821Z,92.41
2022-10-11T01:44:06.821Z,92.21
2022-10-11T01:45:06.815Z,91.79
2022-10-11T01:46:07.340Z,91.42
2022-10-11T01:47:06.804Z,91.58
2022-10-11T01:48:06.803Z,92.04
2022-10-11T01:49:06.800Z,91.63
2022-10-11T01:50:06.790Z,91.52
2022-10-11T01:51:06.788Z,91.52
2022-10-11T01:52:06.785Z,91.42
2022-10-11T01:53:06.777Z,91.83
2022-10-11T01:54:06.795Z,91.32
2022-10-11T01:55:10.487Z,91.42
2022-10-11T01:56:07.363Z,91.46
2022-10-11T01:57:06.761Z,91.94
2022-10-11T01:58:06.757Z,92.25
2022-10-11T01:59:06.754Z,92.35
2022-10-11T02:00:06.747Z,93.07
2022-10-11T02:01:06.820Z,92.97
2022-10-11T02:02:06.744Z,92.55
2022-10-11T02:03:06.739Z,93.07
2022-10-11T02:04:06.735Z,92.76
2022-10-11T02:05:06.728Z,93.18
2022-10-11T02:06:07.344Z,92.35
2022-10-11T02:07:06.720Z,91.83
2022-10-11T02:08:06.713Z,91.52
2022-10-11T02:09:08.209Z,92.08
2022-10-11T02:10:06.726Z,93.18
2022-10-11T02:11:06.699Z,93.07
2022-10-11T02:12:06.707Z,92.97
2022-10-11T02:13:06.693Z,92.97
2022-10-11T02:14:06.691Z,93.07
2022-10-11T02:15:06.684Z,92.55
2022-10-11T02:16:07.169Z,93.12
2022-10-11T02:17:06.676Z,92.04
2022-10-11T02:18:06.671Z,91.73
2022-10-11T02:19:06.666Z,91.52
2022-10-11T02:20:06.666Z,91.67
2022-10-11T02:21:06.657Z,91.67
2022-10-11T02:22:06.654Z,90.95
2022-10-11T02:23:06.655Z,91.46
2022-10-11T02:24:06.648Z,91.56
2022-10-11T02:25:06.642Z,91.56
2022-10-11T02:26:07.189Z,91.05
2022-10-11T02:27:06.633Z,90.64
2022-10-11T02:28:06.675Z,90.68
2022-10-11T02:29:06.623Z,91.30
2022-10-11T02:30:06.619Z,91.92
2022-10-11T02:31:06.617Z,92.23
2022-10-11T02:32:06.613Z,91.71
2022-10-11T02:33:06.606Z,91.40
2022-10-11T02:34:06.604Z,91.82
2022-10-11T02:35:06.598Z,91.82
2022-10-11T02:36:07.232Z,92.91
2022-10-11T02:37:06.591Z,92.64
2022-10-11T02:38:06.586Z,92.23
2022-10-11T02:39:06.579Z,92.13
2022-10-11T02:40:06.578Z,91.92
2022-10-11T02:41:06.572Z,91.50
2022-10-11T02:42:06.586Z,91.50
2022-10-11T02:43:06.600Z,91.61
2022-10-11T02:44:06.559Z,91.82
2022-10-11T02:45:06.555Z,92.13
2022-10-11T02:46:07.043Z,92.13
2022-10-11T02:47:06.544Z,92.95
2022-10-11T02:48:06.545Z,92.23
2022-10-11T02:49:06.558Z,92.33
2022-10-11T02:50:06.533Z,92.44
2022-10-11T02:51:06.527Z,92.64
2022-10-11T02:52:06.526Z,92.74
2022-10-11T02:53:06.519Z,92.74
2022-10-11T02:54:06.519Z,92.95
2022-10-11T02:55:06.513Z,92.33
2022-10-11T02:56:06.800Z,92.44
2022-10-11T02:57:06.501Z,92.95
2022-10-11T02:58:06.520Z,92.44
2022-10-11T02:59:06.493Z,93.16
2022-10-11T03:00:06.498Z,93.57
2022-10-11T03:01:06.484Z,94.09
2022-10-11T03:02:06.537Z,94.29
2022-10-11T03:03:06.475Z,94.19
2022-10-11T03:04:06.472Z,93.26
2022-10-11T03:05:06.475Z,93.05
2022-10-11T03:06:06.924Z,93.16
2022-10-11T03:07:06.457Z,93.16
2022-10-11T03:08:06.456Z,93.26
2022-10-11T03:09:06.448Z,93.16
2022-10-11T03:10:06.450Z,93.84
2022-10-11T03:11:06.445Z,94.40
2022-10-11T03:12:06.436Z,93.53
2022-10-11T03:13:06.433Z,94.19
2022-10-11T03:14:06.444Z,94.04
2022-10-11T03:15:06.422Z,94.35
2022-10-11T03:16:06.421Z,93.84
2022-10-11T03:17:30.824Z,93.84
2022-10-11T03:18:06.413Z,92.76
2022-10-11T03:19:06.403Z,93.32
2022-10-11T03:20:06.411Z,93.12
2022-10-11T03:21:06.395Z,92.19
2022-10-11T03:22:06.389Z,91.77
2022-10-11T03:23:06.385Z,90.64
2022-10-11T03:24:06.383Z,89.61
2022-10-11T03:25:06.378Z,90.06
2022-10-11T03:26:06.848Z,89.44
2022-10-11T03:27:06.367Z,90.78
2022-10-11T03:28:06.576Z,91.61
2022-10-11T03:29:06.359Z,91.92
2022-10-11T03:30:06.375Z,92.23
2022-10-11T03:31:06.349Z,92.44
2022-10-11T03:32:06.347Z,92.13
2022-10-11T03:33:06.343Z,92.02
2022-10-11T03:34:06.337Z,91.71
2022-10-11T03:35:06.331Z,92.02
2022-10-11T03:36:06.870Z,92.02
2022-10-11T03:37:06.330Z,92.23
2022-10-11T03:38:09.087Z,92.95
2022-10-11T03:39:06.313Z,92.33
2022-10-11T03:40:06.313Z,92.23
2022-10-11T03:41:06.308Z,92.85
2022-10-11T03:42:06.306Z,92.74
2022-10-11T03:43:06.300Z,93.16
2022-10-11T03:44:06.298Z,93.78
2022-10-11T03:45:06.290Z,94.09
2022-10-11T03:46:06.917Z,94.35
2022-10-11T03:47:06.280Z,94.56
2022-10-11T03:48:06.275Z,94.56
2022-10-11T03:49:06.269Z,94.67
2022-10-11T03:50:06.271Z,94.93
2022-10-11T03:51:06.260Z,94.72
2022-10-11T03:52:06.258Z,94.82
2022-10-11T03:53:06.263Z,94.37
2022-10-11T03:54:06.249Z,94.47
2022-10-11T03:55:06.243Z,94.47
2022-10-11T03:56:08.586Z,94.47
2022-10-11T03:57:06.249Z,94.37
2022-10-11T03:58:06.239Z,94.17
2022-10-11T03:59:06.231Z,94.17
2022-10-11T04:00:06.227Z,93.75
2022-10-11T04:01:06.218Z,94.06
2022-10-11T04:02:06.425Z,94.57
2022-10-11T04:03:06.208Z,94.27
2022-10-11T04:04:06.203Z,94.43
2022-10-11T04:05:06.209Z,94.17
2022-10-11T04:06:06.640Z,94.43
2022-10-11T04:07:06.203Z,94.84
2022-10-11T04:08:09.806Z,94.74
2022-10-11T04:09:06.182Z,95.36
2022-10-11T04:10:06.178Z,95.05
2022-10-11T04:11:06.177Z,95.15
2022-10-11T04:12:06.171Z,95.25
2022-10-11T04:13:06.163Z,95.15
2022-10-11T04:14:06.159Z,95.52
2022-10-11T04:15:06.155Z,95.73
2022-10-11T04:16:06.629Z,96.24
2022-10-11T04:17:06.145Z,96.03
2022-10-11T04:18:06.164Z,96.24
2022-10-11T04:19:06.136Z,96.24
2022-10-11T04:20:06.133Z,96.14
2022-10-11T04:21:06.144Z,95.52
2022-10-11T04:22:06.123Z,95.93
2022-10-11T04:23:06.128Z,95.78
2022-10-11T04:24:06.123Z,95.62
2022-10-11T04:25:06.112Z,95.78
2022-10-11T04:26:06.533Z,95.62
2022-10-11T04:27:06.102Z,95.68
2022-10-11T04:28:06.099Z,96.14
2022-10-11T04:29:06.093Z,96.24
2022-10-11T04:30:06.092Z,96.09
2022-10-11T04:31:06.084Z,95.99
2022-10-11T04:32:06.084Z,95.73
2022-10-11T04:33:06.079Z,96.20
2022-10-11T04:34:06.092Z,96.41
2022-10-11T04:35:06.069Z,96.41
2022-10-11T04:36:06.593Z,96.50
2022-10-11T04:37:06.063Z,96.20
2022-10-11T04:38:06.058Z,96.20
2022-10-11T04:39:06.055Z,96.30
2022-10-11T04:40:06.053Z,96.61
2022-10-11T04:41:06.045Z,96.30
2022-10-11T04:42:06.043Z,96.15
2022-10-11T04:43:06.037Z,96.36
2022-10-11T04:44:06.032Z,96.67
2022-10-11T04:45:06.028Z,96.36
2022-10-11T04:46:06.470Z,96.56
2022-10-11T04:47:06.018Z,96.36
2022-10-11T04:48:06.015Z,96.56
2022-10-11T04:49:06.011Z,96.88
2022-10-11T04:50:06.027Z,96.77
2022-10-11T04:51:06.001Z,96.52
2022-10-11T04:52:05.998Z,96.72
2022-10-11T04:53:05.994Z,96.93
2022-10-11T04:54:05.986Z,97.03
2022-10-11T04:55:05.984Z,96.72
2022-10-11T04:56:06.251Z,97.14
2022-10-11T04:57:05.977Z,96.93
2022-10-11T04:58:05.973Z,97.24
2022-10-11T04:59:06.066Z,96.93
2022-10-11T05:00:06.017Z,96.68
2022-10-11T05:01:05.959Z,96.89
2022-10-11T05:02:06.038Z,96.68
2022-10-11T05:03:05.950Z,96.78
2022-10-11T05:04:05.950Z,96.78
2022-10-11T05:05:05.943Z,97.50
2022-10-11T05:06:06.369Z,97.25
2022-10-11T05:07:05.935Z,96.99
2022-10-11T05:08:05.931Z,97.30
2022-10-11T05:09:05.927Z,97.19
2022-10-11T05:10:05.922Z,97.19
2022-10-11T05:11:05.924Z,97.40
2022-10-11T05:12:05.915Z,97.24
2022-10-11T05:13:05.910Z,97.55
2022-10-11T05:14:05.909Z,97.75
2022-10-11T05:15:05.902Z,98.16
2022-10-11T05:16:10.579Z,98.68
2022-10-11T05:17:05.907Z,98.68
2022-10-11T05:18:05.888Z,98.79
2022-10-11T05:19:05.885Z,99.19
2022-10-11T05:20:05.883Z,99.51
2022-10-11T05:21:05.892Z,99.35
2022-10-11T05:22:05.893Z,99.30
2022-10-11T05:23:05.882Z,99.51
2022-10-11T05:24:05.872Z,99.35
2022-10-11T05:25:05.867Z,99.40
2022-10-11T05:26:06.149Z,99.51
2022-10-11T05:27:05.851Z,99.30
2022-10-11T05:28:05.848Z,99.99
2022-10-11T05:29:05.844Z,99.60
2022-10-11T05:30:05.843Z,99.51
2022-10-11T05:31:05.838Z,99.60
2022-10-11T05:32:05.847Z,99.99
2022-10-11T05:33:05.830Z,99.99
2022-10-11T05:34:05.825Z,99.99
2022-10-11T05:35:05.825Z,99.99
2022-10-11T05:36:06.257Z,99.99
2022-10-11T05:37:05.815Z,99.99
2022-10-11T05:38:05.825Z,99.99
2022-10-11T05:39:05.807Z,99.99
2022-10-11T05:40:05.797Z,99.99
2022-10-11T05:41:05.794Z,99.99
2022-10-11T05:42:09.727Z,99.99
2022-10-11T05:43:05.783Z,99.99
2022-10-11T05:44:05.781Z,99.99
2022-10-11T05:45:05.777Z,99.99
2022-10-11T05:46:06.204Z,99.99
2022-10-11T05:47:05.768Z,99.99
2022-10-11T05:48:05.763Z,99.99
2022-10-11T05:49:05.766Z,99.99
2022-10-11T05:50:05.763Z,99.99
2022-10-11T05:51:05.751Z,99.87
2022-10-11T05:52:05.750Z,99.99
2022-10-11T05:53:05.743Z,99.99
2022-10-11T05:54:05.758Z,99.99
2022-10-11T05:55:05.738Z,99.99
2022-10-11T05:56:06.090Z,99.99
2022-10-11T05:57:05.727Z,99.99
2022-10-11T05:58:05.722Z,99.99
2022-10-11T05:59:05.756Z,99.97
2022-10-11T06:00:05.715Z,99.87
2022-10-11T06:01:05.777Z,99.97
2022-10-11T06:02:05.707Z,99.99
2022-10-11T06:03:05.707Z,99.99
2022-10-11T06:04:05.698Z,99.99
2022-10-11T06:05:05.696Z,99.35
2022-10-11T06:06:06.158Z,99.77
2022-10-11T06:07:05.688Z,99.25
2022-10-11T06:08:05.680Z,99.62
2022-10-11T06:09:05.677Z,99.35
2022-10-11T06:10:05.771Z,99.15
2022-10-11T06:11:08.186Z,99.31
2022-10-11T06:12:05.663Z,99.25
2022-10-11T06:13:05.660Z,99.41
2022-10-11T06:14:05.656Z,99.25
2022-10-11T06:15:05.661Z,99.10
2022-10-11T06:16:06.147Z,98.79
2022-10-11T06:17:05.646Z,98.33
2022-10-11T06:18:05.638Z,98.63
2022-10-11T06:19:05.635Z,98.63
2022-10-11T06:20:05.634Z,98.68
2022-10-11T06:21:05.634Z,98.06
2022-10-11T06:22:05.624Z,98.16
2022-10-11T06:23:05.621Z,98.11
2022-10-11T06:24:05.619Z,97.90
2022-10-11T06:25:05.621Z,98.58
2022-10-11T06:26:06.043Z,98.42
2022-10-11T06:27:05.607Z,98.83
2022-10-11T06:28:05.620Z,98.62
2022-10-11T06:29:05.597Z,99.44
2022-10-11T06:30:05.592Z,99.04
2022-10-11T06:31:05.593Z,99.14
2022-10-11T06:32:05.584Z,99.34
2022-10-11T06:33:05.583Z,99.40
2022-10-11T06:34:05.580Z,99.91
2022-10-11T06:35:05.573Z,99.71
2022-10-11T06:36:06.010Z,99.51
2022-10-11T06:37:05.565Z,99.81
2022-10-11T06:38:05.559Z,99.40
2022-10-11T06:39:05.567Z,99.09
2022-10-11T06:40:05.550Z,99.30
2022-10-11T06:41:05.547Z,99.09
2022-10-11T06:42:05.558Z,98.93
2022-10-11T06:43:05.540Z,98.27
2022-10-11T06:44:05.533Z,98.42
2022-10-11T06:45:05.534Z,98.83
2022-10-11T06:46:05.849Z,98.21
2022-10-11T06:47:05.525Z,97.90
2022-10-11T06:48:05.522Z,98.42
2022-10-11T06:49:05.515Z,97.90
2022-10-11T06:50:05.509Z,98.79
2022-10-11T06:51:05.538Z,98.72
2022-10-11T06:52:05.515Z,98.52
2022-10-11T06:53:05.505Z,98.58
2022-10-11T06:54:05.506Z,98.37
2022-10-11T06:55:05.493Z,98.16
2022-10-11T06:56:05.779Z,98.27
2022-10-11T06:57:05.482Z,98.68
2022-10-11T06:58:05.496Z,98.79
2022-10-11T06:59:05.474Z,98.79
2022-10-11T07:00:07.962Z,99.30
2022-10-11T07:01:05.544Z,99.51
2022-10-11T07:02:05.461Z,99.30
2022-10-11T07:03:05.455Z,99.25
2022-10-11T07:04:05.451Z,99.46
2022-10-11T07:05:05.453Z,99.56
2022-10-11T07:06:05.923Z,99.51
2022-10-11T07:07:05.447Z,99.25
2022-10-11T07:08:05.435Z,99.35
2022-10-11T07:09:05.433Z,99.25
2022-10-11T07:10:05.426Z,99.21
2022-10-11T07:11:05.426Z,99.21
2022-10-11T07:12:05.418Z,99.31
2022-10-11T07:13:05.419Z,99.21
2022-10-11T07:14:05.427Z,99.66
2022-10-11T07:15:05.409Z,99.72
2022-10-11T07:16:05.723Z,99.21
2022-10-11T07:17:05.402Z,99.31
2022-10-11T07:18:05.393Z,99.51
2022-10-11T07:19:05.402Z,99.31
2022-10-11T07:20:05.388Z,99.51
2022-10-11T07:21:05.385Z,99.41
2022-10-11T07:22:05.377Z,99.62
2022-10-11T07:23:05.373Z,99.62
2022-10-11T07:24:05.372Z,99.41
2022-10-11T07:25:05.371Z,99.41
2022-10-11T07:26:05.773Z,99.51
2022-10-11T07:27:05.360Z,99.72
2022-10-11T07:28:05.354Z,99.72
2022-10-11T07:29:05.444Z,99.82
2022-10-11T07:30:05.370Z,99.41
2022-10-11T07:31:05.343Z,99.72
2022-10-11T07:32:05.340Z,99.72
2022-10-11T07:33:05.347Z,99.72
2022-10-11T07:34:05.335Z,99.41
2022-10-11T07:35:05.329Z,99.99
2022-10-11T07:36:05.615Z,99.99
2022-10-11T07:37:05.319Z,99.88
2022-10-11T07:38:05.322Z,99.99
2022-10-11T07:39:05.312Z,99.99
2022-10-11T07:40:05.309Z,99.99
2022-10-11T07:41:05.311Z,99.99
2022-10-11T07:42:05.299Z,99.99
2022-10-11T07:43:05.296Z,99.99
2022-10-11T07:44:05.292Z,99.99
2022-10-11T07:45:05.294Z,99.98
2022-10-11T07:46:05.940Z,99.99
2022-10-11T07:47:10.308Z,99.99
2022-10-11T07:48:05.276Z,99.99
2022-10-11T07:49:05.274Z,99.99
2022-10-11T07:50:05.264Z,99.98
2022-10-11T07:51:05.265Z,99.99
2022-10-11T07:52:05.260Z,99.99
2022-10-11T07:53:05.261Z,99.98
2022-10-11T07:54:07.376Z,99.99
2022-10-11T07:55:05.249Z,99.99
2022-10-11T07:56:05.538Z,99.99
2022-10-11T07:57:05.244Z,99.99
2022-10-11T07:58:05.234Z,99.99
2022-10-11T07:59:05.238Z,99.99
2022-10-11T08:00:05.229Z,99.99
2022-10-11T08:01:05.359Z,99.99
2022-10-11T08:02:05.239Z,99.99
2022-10-11T08:03:05.218Z,99.99
2022-10-11T08:04:05.237Z,99.99
2022-10-11T08:05:05.209Z,99.99
2022-10-11T08:06:05.605Z,99.99
2022-10-11T08:07:05.201Z,99.99
2022-10-11T08:08:05.216Z,99.99
2022-10-11T08:09:05.195Z,99.99
2022-10-11T08:10:05.202Z,99.99
2022-10-11T08:11:05.185Z,99.99
2022-10-11T08:12:05.184Z,99.99
2022-10-11T08:13:05.181Z,99.99
2022-10-11T08:14:05.175Z,99.99
2022-10-11T08:15:05.177Z,99.99
2022-10-11T08:16:05.688Z,99.99
2022-10-11T08:17:05.181Z,99.99
2022-10-11T08:18:05.204Z,99.99
2022-10-11T08:19:05.156Z,99.99
2022-10-11T08:20:05.154Z,99.99
2022-10-11T08:21:05.148Z,99.99
2022-10-11T08:22:05.144Z,99.99
2022-10-11T08:23:05.164Z,99.99
2022-10-11T08:24:05.137Z,99.99
2022-10-11T08:25:05.142Z,99.99
2022-10-11T08:26:05.550Z,99.99
2022-10-11T08:27:05.131Z,99.99
2022-10-11T08:28:05.122Z,99.99
2022-10-11T08:29:05.192Z,99.99
2022-10-11T08:30:05.112Z,99.99
2022-10-11T08:31:05.110Z,99.99
2022-10-11T08:32:05.117Z,99.99
2022-10-11T08:33:08.579Z,99.99
2022-10-11T08:34:05.116Z,99.99
2022-10-11T08:35:05.118Z,99.99
2022-10-11T08:36:05.488Z,99.99
2022-10-11T08:37:05.091Z,99.99
2022-10-11T08:38:05.093Z,99.99
2022-10-11T08:39:05.079Z,99.99
2022-10-11T08:40:05.075Z,99.99
2022-10-11T08:41:05.078Z,99.99
2022-10-11T08:42:05.090Z,99.99
2022-10-11T08:43:05.067Z,99.99
2022-10-11T08:44:05.062Z,99.99
2022-10-11T08:45:11.064Z,99.99
2022-10-11T08:46:05.469Z,99.99
2022-10-11T08:47:05.054Z,99.99
2022-10-11T08:48:05.047Z,99.99
2022-10-11T08:49:05.046Z,99.99
2022-10-11T08:50:05.055Z,99.99
2022-10-11T08:51:05.035Z,99.99
2022-10-11T08:52:05.030Z,99.99
2022-10-11T08:53:05.032Z,99.99
2022-10-11T08:54:07.731Z,99.99
2022-10-11T08:55:05.022Z,99.99
2022-10-11T08:56:05.492Z,99.99
2022-10-11T08:57:05.014Z,99.99
2022-10-11T08:58:05.007Z,99.99
2022-10-11T08:59:05.012Z,99.99
2022-10-11T09:00:04.999Z,99.99
2022-10-11T09:01:05.071Z,99.99
2022-10-11T09:02:04.993Z,99.99
2022-10-11T09:03:09.537Z,99.99
2022-10-11T09:04:04.988Z,99.99
2022-10-11T09:05:04.987Z,99.99
2022-10-11T09:06:05.378Z,99.99
2022-10-11T09:07:05.277Z,99.99
2022-10-11T09:08:05.044Z,99.99
2022-10-11T09:09:04.973Z,99.99
2022-10-11T09:10:04.963Z,99.99
2022-10-11T09:11:04.963Z,99.99
2022-10-11T09:12:04.956Z,99.99
2022-10-11T09:13:04.955Z,99.99
2022-10-11T09:14:04.949Z,99.99
2022-10-11T09:15:04.947Z,99.99
2022-10-11T09:16:05.268Z,99.99
2022-10-11T09:17:04.941Z,99.99
2022-10-11T09:18:04.933Z,99.99
2022-10-11T09:19:04.931Z,99.99
2022-10-11T09:20:04.949Z,99.99
2022-10-11T09:21:04.926Z,99.99
2022-10-11T09:22:04.939Z,99.99
2022-10-11T09:23:04.918Z,99.99
2022-10-11T09:24:04.917Z,99.99
2022-10-11T09:25:04.921Z,99.99
2022-10-11T09:26:05.211Z,99.99
2022-10-11T09:27:04.913Z,99.99
2022-10-11T09:28:04.904Z,99.99
2022-10-11T09:29:04.970Z,99.99
2022-10-11T09:30:04.891Z,99.99
2022-10-11T09:31:04.896Z,99.99
2022-10-11T09:32:04.884Z,99.99
2022-10-11T09:33:04.888Z,99.99
2022-10-11T09:34:04.877Z,99.99
2022-10-11T09:35:04.876Z,99.99
2022-10-11T09:36:05.252Z,99.99
2022-10-11T09:37:04.868Z,99.99
2022-10-11T09:38:05.118Z,99.99
2022-10-11T09:39:06.789Z,99.99
2022-10-11T09:40:04.860Z,99.99
2022-10-11T09:41:04.866Z,99.99
2022-10-11T09:42:04.850Z,99.99
2022-10-11T09:43:04.847Z,99.99
2022-10-11T09:44:04.842Z,99.99
2022-10-11T09:45:04.843Z,99.99
2022-10-11T09:46:05.139Z,99.99
2022-10-11T09:47:04.833Z,99.99
2022-10-11T09:48:04.829Z,99.99
2022-10-11T09:49:04.826Z,99.99
2022-10-11T09:50:04.821Z,99.99
2022-10-11T09:51:04.819Z,99.99
2022-10-11T09:52:04.813Z,99.99
2022-10-11T09:53:04.817Z,99.99
2022-10-11T09:54:04.823Z,99.99
2022-10-11T09:55:04.802Z,99.99
2022-10-11T09:56:05.330Z,99.99
2022-10-11T09:57:04.812Z,99.99
2022-10-11T09:58:04.813Z,99.99
2022-10-11T09:59:04.793Z,99.99
2022-10-11T10:00:04.789Z,99.99
2022-10-11T10:01:08.038Z,99.99
2022-10-11T10:02:04.892Z,99.99
2022-10-11T10:03:04.777Z,99.99
2022-10-11T10:04:04.777Z,99.99
2022-10-11T10:05:04.771Z,99.99
2022-10-11T10:06:05.090Z,99.99
2022-10-11T10:07:04.761Z,99.99
2022-10-11T10:08:05.394Z,99.99
2022-10-11T10:09:04.757Z,99.99
2022-10-11T10:10:04.770Z,99.99
2022-10-11T10:11:04.747Z,99.99
2022-10-11T10:12:04.747Z,99.99
2022-10-11T10:13:04.745Z,99.99
2022-10-11T10:14:04.740Z,99.99
2022-10-11T10:15:04.770Z,99.99
2022-10-11T10:16:05.143Z,99.99
2022-10-11T10:17:04.728Z,99.99
2022-10-11T10:18:04.725Z,99.99
2022-10-11T10:19:04.722Z,99.99
2022-10-11T10:20:04.721Z,99.99
2022-10-11T10:21:04.715Z,99.99
2022-10-11T10:22:04.710Z,99.99
2022-10-11T10:23:04.706Z,99.99
2022-10-11T10:24:04.708Z,99.99
2022-10-11T10:25:04.701Z,99.99
2022-10-11T10:26:05.109Z,99.99
2022-10-11T10:27:04.695Z,99.99
2022-10-11T10:28:04.697Z,99.99
2022-10-11T10:29:04.690Z,99.99
2022-10-11T10:30:04.694Z,99.99
2022-10-11T10:31:04.680Z,99.99
2022-10-11T10:32:19.982Z,99.99
2022-10-11T10:33:04.674Z,99.99
2022-10-11T10:34:04.675Z,99.99
2022-10-11T10:35:04.873Z,99.99
2022-10-11T10:36:05.016Z,99.99
2022-10-11T10:37:04.662Z,99.99
2022-10-11T10:38:04.660Z,99.99
2022-10-11T10:39:04.655Z,99.99
2022-10-11T10:40:04.666Z,99.99
2022-10-11T10:41:04.704Z,99.99
2022-10-11T10:42:04.671Z,99.99
2022-10-11T10:43:04.641Z,99.99
2022-10-11T10:44:04.639Z,99.99
2022-10-11T10:45:08.411Z,99.99
2022-10-11T10:46:04.976Z,99.99
2022-10-11T10:47:04.630Z,99.99
2022-10-11T10:48:04.626Z,99.99
2022-10-11T10:49:48.442Z,99.99
2022-10-11T10:50:04.624Z,99.99
2022-10-11T10:51:08.398Z,99.99
2022-10-11T10:52:04.612Z,99.99
2022-10-11T10:53:04.607Z,99.99
2022-10-11T10:54:04.605Z,99.99
2022-10-11T10:55:04.602Z,99.99
2022-10-11T10:56:05.129Z,99.99
2022-10-11T10:57:04.596Z,99.99
2022-10-11T10:58:04.633Z,99.99
2022-10-11T10:59:04.597Z,99.99
2022-10-11T11:00:04.603Z,99.99
2022-10-11T11:01:04.590Z,99.99
2022-10-11T11:02:15.856Z,99.99
2022-10-11T11:03:04.577Z,99.99
2022-10-11T11:04:04.576Z,99.99
2022-10-11T11:05:04.739Z,99.99
2022-10-11T11:06:04.834Z,99.99
2022-10-11T11:07:04.563Z,99.99
2022-10-11T11:08:04.563Z,99.99
2022-10-11T11:09:04.555Z,99.99
2022-10-11T11:10:04.559Z,99.99
2022-10-11T11:11:04.552Z,99.99
2022-10-11T11:12:04.554Z,99.99
2022-10-11T11:13:04.550Z,99.99
2022-10-11T11:14:04.558Z,99.99
2022-10-11T11:15:04.536Z,99.99
2022-10-11T11:16:04.841Z,99.99
2022-10-11T11:17:04.530Z,99.99
2022-10-11T11:18:04.529Z,99.99
2022-10-11T11:19:04.526Z,99.99
2022-10-11T11:20:04.528Z,99.99
2022-10-11T11:21:04.519Z,99.99
2022-10-11T11:22:04.513Z,99.99
2022-10-11T11:23:04.521Z,99.99
2022-10-11T11:24:04.511Z,99.99
2022-10-11T11:25:04.507Z,99.99
2022-10-11T11:26:04.895Z,99.99
2022-10-11T11:27:04.501Z,99.99
2022-10-11T11:28:04.500Z,99.99
2022-10-11T11:29:04.494Z,99.99
2022-10-11T11:30:04.513Z,99.99
2022-10-11T11:31:04.934Z,99.99
2022-10-11T11:32:04.485Z,99.99
2022-10-11T11:33:04.480Z,99.99
2022-10-11T11:34:04.477Z,99.99
2022-10-11T11:35:04.823Z,99.99
2022-10-11T11:36:04.737Z,99.98
2022-10-11T11:37:04.466Z,99.99
2022-10-11T11:38:06.507Z,99.98
2022-10-11T11:39:04.462Z,99.99
2022-10-11T11:40:04.459Z,99.05
2022-10-11T11:41:04.808Z,99.56
2022-10-11T11:42:04.455Z,99.66
2022-10-11T11:43:04.466Z,99.66
2022-10-11T11:44:04.452Z,99.56
2022-10-11T11:45:04.447Z,99.66
2022-10-11T11:46:04.458Z,99.87
2022-10-11T11:47:04.440Z,99.46
2022-10-11T11:48:04.438Z,99.26
2022-10-11T11:49:04.430Z,99.52
2022-10-11T11:50:04.438Z,99.52
2022-10-11T11:51:04.718Z,99.46
2022-10-11T11:52:04.425Z,99.46
2022-10-11T11:53:04.418Z,99.46
2022-10-11T11:54:04.416Z,99.46
2022-10-11T11:55:04.438Z,99.56
2022-10-11T11:56:04.413Z,99.99
2022-10-11T11:57:04.407Z,99.82
2022-10-11T11:58:07.108Z,99.82
2022-10-11T11:59:04.417Z,99.99
2022-10-11T12:00:04.398Z,99.82
2022-10-11T12:01:04.674Z,99.99
2022-10-11T12:02:04.445Z,99.82
2022-10-11T12:03:04.389Z,99.93
2022-10-11T12:04:04.386Z,99.82
2022-10-11T12:05:04.588Z,99.93
2022-10-11T12:06:04.376Z,99.99
2022-10-11T12:07:16.003Z,99.99
2022-10-11T12:08:04.373Z,99.82
2022-10-11T12:09:04.368Z,99.99
2022-10-11T12:10:04.369Z,99.99
2022-10-11T12:11:04.780Z,99.82
2022-10-11T12:12:04.358Z,99.93
2022-10-11T12:13:04.354Z,99.99
2022-10-11T12:14:04.356Z,99.99
2022-10-11T12:15:04.354Z,99.41
2022-10-11T12:16:04.346Z,99.52
2022-10-11T12:17:04.343Z,99.41
2022-10-11T12:18:04.363Z,99.62
2022-10-11T12:19:04.334Z,99.21
2022-10-11T12:20:04.336Z,98.80
2022-10-11T12:21:04.718Z,99.01
2022-10-11T12:22:04.325Z,99.01
2022-10-11T12:23:04.329Z,98.90
2022-10-11T12:24:04.325Z,98.70
2022-10-11T12:25:04.325Z,98.90
2022-10-11T12:26:04.316Z,98.90
2022-10-11T12:27:04.311Z,98.90
2022-10-11T12:28:04.337Z,99.11
2022-10-11T12:29:04.321Z,99.01
2022-10-11T12:30:04.309Z,98.90
2022-10-11T12:31:04.675Z,99.01
2022-10-11T12:32:04.304Z,98.80
2022-10-11T12:33:04.291Z,99.06
2022-10-11T12:34:04.310Z,99.27
2022-10-11T12:35:04.285Z,99.06
2022-10-11T12:36:08.249Z,99.11
2022-10-11T12:37:06.674Z,98.86
2022-10-11T12:38:04.281Z,98.65
2022-10-11T12:39:04.274Z,98.14
2022-10-11T12:40:04.270Z,97.83
2022-10-11T12:41:04.268Z,97.74
2022-10-11T12:42:06.021Z,97.53
2022-10-11T12:43:04.261Z,97.69
2022-10-11T12:44:04.267Z,97.79
2022-10-11T12:45:04.255Z,97.89
2022-10-11T12:46:04.555Z,97.38
2022-10-11T12:47:04.248Z,97.08
2022-10-11T12:48:04.245Z,97.08
2022-10-11T12:49:04.243Z,96.61
2022-10-11T12:50:04.261Z,96.71
2022-10-11T12:51:04.237Z,96.41
2022-10-11T12:52:04.235Z,95.79